Time;durP1;ratioP1;P1;durP2;ratioP2;P2;SDS_P1;SDS_P2;PMS_P1;PMS_P2;Temp;Humidity;BMP_temperature;BMP_pressure;BME280_temperature;BME280_humidity;BME280_pressure;Samples;Min_cycle;Max_cycle;Signal;HPM_P1;HPM_P2
2022/04/01 00:02:26;;;;;;;2.78;1.88;;;;;;;;;;5070615;28;20039;-60
2022/04/01 00:04:52;;;;;;;3.80;2.15;;;;;;;;;;5069024;28;20120;-60
2022/04/01 00:07:18;;;;;;;4.93;2.35;;;;;;;;;;5068022;28;20087;-61
2022/04/01 00:09:44;;;;;;;3.30;1.90;;;;;;;;;;5073275;28;20036;-60
2022/04/01 00:12:10;;;;;;;3.65;2.30;;;;;;;;;;5067570;28;20041;-60
2022/04/01 00:14:36;;;;;;;4.60;2.13;;;;;;;;;;5072554;28;20036;-60
2022/04/01 00:17:02;;;;;;;5.50;1.90;;;;;;;;;;5074495;28;20032;-60
2022/04/01 00:19:29;;;;;;;4.03;1.95;;;;;;;;;;5070940;28;20036;-60
2022/04/01 00:21:55;;;;;;;4.03;1.75;;;;;;;;;;5072771;28;20384;-60
2022/04/01 00:24:22;;;;;;;5.18;1.75;;;;;;;;;;5072058;28;20036;-60
2022/04/01 00:26:48;;;;;;;3.78;1.90;;;;;;;;;;5072588;28;20124;-60
2022/04/01 00:29:17;;;;;;;2.42;1.90;;;;;;;;;;5072176;28;20033;-60
2022/04/01 00:31:44;;;;;;;2.08;1.63;;;;;;;;;;5072632;28;20048;-60
2022/04/01 00:34:17;;;;;;;3.33;1.95;;;;;;;;;;5074509;28;20032;-60
2022/04/01 00:36:50;;;;;;;2.22;1.48;;;;;;;;;;5072722;28;20535;-60
2022/04/01 00:39:16;;;;;;;;;;;1.00;99.90;;;;;;5070990;28;20060;-60
2022/04/01 00:41:46;;;;;;;4.93;1.80;;;;;;;;;;5072729;28;19920;-60
2022/04/01 00:44:13;;;;;;;3.38;1.58;;;;;;;;;;5071633;28;20028;-60
2022/04/01 00:46:43;;;;;;;2.35;1.65;;;;;;;;;;5070463;28;20036;-60
2022/04/01 00:49:09;;;;;;;3.15;1.50;;;;;;;;;;5074252;28;20044;-61
2022/04/01 00:51:37;;;;;;;4.28;1.60;;;;;;;;;;5075487;28;20510;-60
2022/04/01 00:54:04;;;;;;;3.22;1.67;;;;;;;;;;5072091;28;20048;-59
2022/04/01 00:56:31;;;;;;;2.22;1.55;;;;;;;;;;5073282;28;20044;-60
2022/04/01 00:58:58;;;;;;;2.78;1.52;;;;;;;;;;5071741;28;20048;-60
2022/04/01 01:01:24;;;;;;;2.30;1.60;;;;;;;;;;5070972;28;20064;-61
2022/04/01 01:03:50;;;;;;;3.13;1.73;;;;;;;;;;5071212;28;20068;-60
2022/04/01 01:06:17;;;;;;;3.22;1.52;;;;;;;;;;5068832;28;20055;-60
2022/04/01 01:08:43;;;;;;;3.38;1.50;;;;;;;;;;5071927;28;20364;-60
2022/04/01 01:11:09;;;;;;;2.03;1.42;;;;;;;;;;5071337;28;20040;-60
2022/04/01 01:13:36;;;;;;;2.85;1.50;;;;;;;;;;5072639;28;20572;-60
2022/04/01 01:16:02;;;;;;;2.20;1.48;;;;;;;;;;5073675;28;20036;-60
2022/04/01 01:18:28;;;;;;;2.65;1.70;;;;;;;;;;5070592;28;20048;-60
2022/04/01 01:20:54;;;;;;;2.45;1.45;;;;;;;;;;5072845;28;20039;-60
2022/04/01 01:23:20;;;;;;;5.25;1.60;;;;;;;;;;5071132;28;20040;-60
2022/04/01 01:25:46;;;;;;;4.45;1.48;;;;;;;;;;5070940;28;20047;-60
2022/04/01 01:28:12;;;;;;;3.83;1.40;;;;;;;;;;5071572;28;20045;-61
2022/04/01 01:30:39;;;;;;;2.20;1.60;;;;;;;;;;5069534;28;20060;-60
2022/04/01 01:33:05;;;;;;;4.22;1.50;;;;;;;;;;5070146;28;20387;-60
2022/04/01 01:35:32;;;;;;;2.50;1.60;;;;;;;;;;5069725;28;20083;-60
2022/04/01 01:37:58;;;;;;;4.88;1.70;;;;;;;;;;5069675;28;20056;-60
2022/04/01 01:40:24;;;;;;;4.20;1.80;;;;;;;;;;5070632;28;20037;-60
2022/04/01 01:42:50;;;;;;;2.03;1.30;;;;;;;;;;5072736;28;20039;-61
2022/04/01 01:45:16;;;;;;;4.15;1.63;;;;;;;;;;5071038;28;20474;-60
2022/04/01 01:47:43;;;;;;;3.17;1.60;;;;;;;;;;5071258;28;20045;-60
2022/04/01 01:55:38;;;;;;;2.55;1.45;;;;;;;;;;5071331;28;20045;-60
2022/04/01 01:58:05;;;;;;;3.08;1.63;;;;;;;;;;5069449;28;20043;-60
2022/04/01 02:00:31;;;;;;;3.53;1.80;;;;;;;;;;5071030;28;20157;-60
2022/04/01 02:02:57;;;;;;;2.28;1.42;;;;;;;;;;5070218;28;20495;-60
2022/04/01 02:05:23;;;;;;;2.35;1.60;;;;;;;;;;5069611;28;20047;-60
2022/04/01 02:07:52;;;;;;;1.60;1.23;;;;;;;;;;5069198;28;20036;-60
2022/04/01 02:10:18;;;;;;;3.53;1.90;;;;;;;;;;5069703;28;20527;-60
2022/04/01 02:12:44;;;;;;;4.25;1.70;;;;;;;;;;5071879;28;20039;-60
2022/04/01 02:15:11;;;;;;;2.42;1.55;;;;;;;;;;5070921;28;20119;-61
2022/04/01 02:17:40;;;;;;;3.17;1.88;;;;;;;;;;5069755;28;20037;-60
2022/04/01 02:20:09;;;;;;;2.72;1.75;;;;;;;;;;5071412;28;20036;-60
2022/04/01 02:22:36;;;;;;;2.95;1.70;;;;;;;;;;5069531;28;20530;-60
2022/04/01 02:25:04;;;;;;;5.43;2.22;;;;;;;;;;5071326;28;20040;-60
2022/04/01 02:27:30;;;;;;;3.10;1.73;;;;;;;;;;5070674;28;20044;-60
2022/04/01 02:29:57;;;;;;;2.10;1.40;;;;;;;;;;5071470;28;20265;-60
2022/04/01 02:32:26;;;;;;;3.05;1.63;;;;;;;;;;5069514;28;20090;-60
2022/04/01 02:34:53;;;;;;;3.67;1.30;;;;;;;;;;5069100;28;20086;-60
2022/04/01 02:37:21;;;;;;;4.95;1.52;;;;;;;;;;5069454;28;20503;-60
2022/04/01 02:39:47;;;;;;;6.53;1.88;;;;;;;;;;5069099;28;20056;-61
2022/04/01 02:42:13;;;;;;;3.42;1.35;;;;;;;;;;5069776;28;20041;-60
2022/04/01 02:44:39;;;;;;;4.05;2.55;;;;;;;;;;5070099;28;20380;-60
2022/04/01 02:47:08;;;;;;;4.70;1.80;;;;;;;;;;5052213;28;20123;-60
2022/04/01 02:49:34;;;;;;;4.10;1.30;;;;;;;;;;5069560;28;20047;-61
2022/04/01 02:52:00;;;;;;;2.67;1.85;;;;;;;;;;5070384;28;20036;-60
2022/04/01 02:54:26;;;;;;;2.40;1.70;;;;;;;;;;5069185;28;20048;-60
2022/04/01 02:56:52;;;;;;;4.35;1.83;;;;;;;;;;5071154;28;20048;-61
2022/04/01 02:59:19;;;;;;;2.38;1.48;;;;;;;;;;5070156;28;20624;-60
2022/04/01 03:01:45;;;;;;;4.60;1.80;;;;;;;;;;5068500;28;20040;-60
2022/04/01 03:04:11;;;;;;;2.17;1.60;;;;;;;;;;5069871;28;20044;-60
2022/04/01 03:06:38;;;;;;;2.63;1.42;;;;;;;;;;5069242;28;20479;-60
2022/04/01 03:09:05;;;;;;;2.67;1.60;;;;;;;;;;5070258;28;20149;-60
2022/04/01 03:11:31;;;;;;;4.70;2.70;;;;;;;;;;5069341;28;20032;-60
2022/04/01 03:13:57;;;;;;;2.45;1.95;;;;;;;;;;5069852;28;20059;-60
2022/04/01 03:16:24;;;;;;;3.30;1.52;;;;;;;;;;5067880;28;20033;-60
2022/04/01 03:18:50;;;;;;;1.92;1.50;;;;;;;;;;5067776;28;20044;-60
2022/04/01 03:21:16;;;;;;;2.53;1.67;;;;;;;;;;5068976;28;20040;-60
2022/04/01 03:23:47;;;;;;;6.97;1.67;;;;;;;;;;5069924;28;20067;-60
2022/04/01 03:26:13;;;;;;;3.53;1.50;;;;;;;;;;5068850;28;20047;-60
2022/04/01 03:28:39;;;;;;;5.55;1.30;;;;;;;;;;5069949;28;20119;-60
2022/04/01 03:31:06;;;;;;;2.55;1.50;;;;;;;;;;5068903;28;20371;-60
2022/04/01 03:33:33;;;;;;;2.55;1.50;;;;;;;;;;5070024;28;20036;-61
2022/04/01 03:35:59;;;;;;;1.90;1.65;;;;;;;;;;5070899;28;20047;-60
2022/04/01 03:38:26;;;;;;;5.72;1.83;;;;;;;;;;5069660;28;20511;-60
2022/04/01 03:40:52;;;;;;;3.03;1.58;;;;;;;;;;5070707;28;20067;-60
2022/04/01 03:43:20;;;;;;;4.65;2.10;;;;;;;;;;5069635;28;20040;-60
2022/04/01 03:45:48;;;;;;;3.75;1.58;;;;;;;;;;5069892;28;20185;-61
2022/04/01 03:48:35;;;;;;;4.68;1.58;;;;;;;;;;5074839;28;20044;-60
2022/04/01 03:51:04;;;;;;;1.95;1.40;;;;;;;;;;5075452;28;20812;-60
2022/04/01 03:53:31;;;;;;;8.88;1.70;;;;;;;;;;5070062;28;20040;-60
2022/04/01 03:55:58;;;;;;;5.43;1.45;;;;;;;;;;5073293;28;20059;-60
2022/04/01 03:58:31;;;;;;;3.80;1.55;;;;;;;;;;5073328;28;20036;-60
2022/04/01 04:00:59;;;;;;;3.92;1.50;;;;;;;;;;5073151;28;20029;-60
2022/04/01 04:03:25;;;;;;;6.45;2.00;;;;;;;;;;5073140;28;21463;-60
2022/04/01 04:05:53;;;;;;;3.88;1.40;;;;;;;;;;5073083;28;20032;-60
2022/04/01 04:08:21;;;;;;;5.35;1.48;;;;;;;;;;5073283;28;20040;-60
2022/04/01 04:10:48;;;;;;;4.47;1.38;;;;;;;;;;5072881;28;20549;-60
2022/04/01 04:13:15;;;;;;;3.08;1.58;;;;;;;;;;5073085;28;20043;-60
2022/04/01 04:15:44;;;;;;;4.88;1.58;;;;;;;;;;5073002;28;20127;-60
2022/04/01 04:18:14;;;;;;;3.72;1.30;;;;;;;;;;5072927;28;20048;-61
2022/04/01 04:20:43;;;;;;;4.13;1.58;;;;;;;;;;5073439;28;20124;-60
2022/04/01 04:23:10;;;;;;;2.50;1.58;;;;;;;;;;5072837;28;20376;-60
2022/04/01 04:25:37;;;;;;;2.85;1.63;;;;;;;;;;5073231;28;20036;-60
2022/04/01 04:28:08;;;;;;;4.32;1.30;;;;;;;;;;5072873;28;20499;-60
2022/04/01 04:30:35;;;;;;;3.53;1.63;;;;;;;;;;5072636;28;20084;-60
2022/04/01 04:33:05;;;;;;;4.70;1.77;;;;;;;;;;5072888;28;20090;-60
2022/04/01 04:35:31;;;;;;;4.93;1.70;;;;;;;;;;5072557;28;20043;-60
2022/04/01 04:37:58;;;;;;;3.63;1.17;;;;;;;;;;5072206;28;20503;-60
2022/04/01 04:40:25;;;;;;;2.25;1.27;;;;;;;;;;5072327;28;20048;-60
2022/04/01 04:42:53;;;;;;;3.15;1.63;;;;;;;;;;5072770;28;20073;-61
2022/04/01 04:45:20;;;;;;;4.43;2.05;;;;;;;;;;5072446;28;20076;-60
2022/04/01 04:47:47;;;;;;;4.22;1.23;;;;;;;;;;5072548;28;20037;-60
2022/04/01 04:50:13;;;;;;;2.40;1.50;;;;;;;;;;5073320;28;20437;-60
2022/04/01 04:52:40;;;;;;;2.60;1.60;;;;;;;;;;5072229;28;20032;-60
2022/04/01 04:55:17;;;;;;;2.45;1.30;;;;;;;;;;5071723;28;20123;-60
2022/04/01 04:57:44;;;;;;;4.28;1.73;;;;;;;;;;5070046;28;20045;-60
2022/04/01 05:00:10;;;;;;;4.57;1.80;;;;;;;;;;5071593;28;20090;-60
2022/04/01 05:02:58;;;;;;;4.45;1.35;;;1.60;99.90;;;;;;5072313;28;20071;-61
2022/04/01 05:05:35;;;;;;;4.35;1.67;;;;;;;;;;5073761;28;20051;-60
2022/04/01 05:08:28;;;;;;;2.65;1.42;;;1.40;99.90;;;;;;5072310;28;20036;-60
2022/04/01 05:11:09;;;;;;;3.92;1.63;;;;;;;;;;5072411;28;20040;-60
2022/04/01 05:13:35;;;;;;;3.50;1.20;;;;;;;;;;5072990;28;20043;-60
2022/04/01 05:16:07;;;;;;;2.40;1.40;;;;;;;;;;5073959;28;20037;-61
2022/04/01 05:18:41;;;;;;;2.45;1.50;;;;;;;;;;5070899;28;20048;-60
2022/04/01 05:21:11;;;;;;;5.30;1.30;;;;;;;;;;5070668;28;20044;-60
2022/04/01 05:23:54;;;;;;;4.95;1.30;;;;;;;;;;5070583;28;20556;-60
2022/04/01 05:26:22;;;;;;;3.28;1.40;;;;;;;;;;5070258;28;20498;-61
2022/04/01 05:28:52;;;;;;;2.13;1.20;;;;;;;;;;5069698;28;20051;-61
2022/04/01 05:31:30;;;;;;;2.42;1.30;;;;;;;;;;5071583;28;20498;-61
2022/04/01 05:34:09;;;;;;;3.35;1.20;;;;;;;;;;5071205;28;20036;-60
2022/04/01 05:36:35;;;;;;;1.55;0.90;;;;;;;;;;5067805;28;20253;-61
2022/04/01 05:39:03;;;;;;;4.47;1.00;;;;;;;;;;5071399;28;20491;-62
2022/04/01 05:41:30;;;;;;;2.92;1.30;;;;;;;;;;5073700;28;20028;-61
2022/04/01 05:43:57;;;;;;;3.97;1.10;;;;;;;;;;5071206;28;20927;-61
2022/04/01 05:46:25;;;;;;;7.13;0.90;;;;;;;;;;5071305;28;20063;-61
2022/04/01 05:48:53;;;;;;;3.13;1.02;;;;;;;;;;5070147;28;20043;-61
2022/04/01 05:51:19;;;;;;;4.28;1.00;;;;;;;;;;5070571;28;20032;-60
2022/04/01 05:53:46;;;;;;;2.15;0.95;;;;;;;;;;5070053;28;20044;-61
2022/04/01 05:56:13;;;;;;;2.95;0.93;;;;;;;;;;5071410;28;20041;-61
2022/04/01 05:58:40;;;;;;;3.30;1.10;;;;;;;;;;5071183;28;20040;-60
2022/04/01 06:01:26;;;;;;;5.68;1.05;;;;;;;;;;5071503;28;20149;-61
2022/04/01 06:04:05;;;;;;;4.55;1.10;;;;;;;;;;5048419;28;20057;-61
2022/04/01 06:06:40;;;;;;;1.25;0.90;;;;;;;;;;5046304;28;20045;-62
2022/04/01 06:09:14;;;;;;;1.33;0.70;;;;;;;;;;5047674;28;20052;-61
2022/04/01 06:11:50;;;;;;;3.05;1.10;;;;;;;;;;5048639;28;20048;-61
2022/04/01 06:14:16;;;;;;;3.80;1.08;;;;;;;;;;5048460;28;20064;-61
2022/04/01 06:16:49;;;;;;;3.50;0.90;;;;;;;;;;5048537;28;20486;-61
2022/04/01 06:19:44;;;;;;;3.53;1.00;;;;;;;;;;5047343;28;20045;-60
2022/04/01 06:22:18;;;;;;;3.60;0.98;;;;;;;;;;4989007;28;20046;-61
2022/04/01 06:25:06;;;;;;;2.00;0.90;;;2.10;99.90;;;;;;4988262;28;20034;-61
2022/04/01 06:27:39;;;;;;;3.95;1.10;;;;;;;;;;4987363;28;20493;-61
2022/04/01 06:30:06;;;;;;;5.10;1.00;;;;;;;;;;4988980;28;20117;-61
2022/04/01 06:32:35;;;;;;;3.13;0.90;;;;;;;;;;4988737;28;20042;-61
2022/04/01 06:35:19;;;;;;;2.03;1.08;;;;;;;;;;4972486;28;20093;-62
2022/04/01 06:37:55;;;;;;;4.57;1.10;;;;;;;;;;4987326;28;20054;-61
2022/04/01 06:40:24;;;;;;;2.92;1.20;;;;;;;;;;4996106;28;20132;-61
2022/04/01 06:42:53;;;;;;;3.92;1.05;;;;;;;;;;5027945;28;20056;-61
2022/04/01 06:45:19;;;;;;;3.20;1.48;;;;;;;;;;5009457;28;20061;-61
2022/04/01 06:47:46;;;;;;;4.45;1.65;;;;;;;;;;5027955;28;20042;-61
2022/04/01 06:50:14;;;;;;;2.13;0.93;;;;;;;;;;5005913;28;20084;-61
2022/04/01 06:52:40;;;;;;;2.63;1.48;;;;;;;;;;5009850;28;20095;-62
2022/04/01 06:55:10;;;;;;;2.80;0.98;;;;;;;;;;5022922;28;20049;-61
2022/04/01 06:57:36;;;;;;;2.38;1.10;;;;;;;;;;5027934;28;20075;-61
2022/04/01 07:00:08;;;;;;;3.53;1.10;;;;;;;;;;5069195;28;20302;-61
2022/04/01 07:02:35;;;;;;;2.60;0.90;;;;;;;;;;5068645;28;20390;-62
2022/04/01 07:05:01;;;;;;;4.72;2.05;;;;;;;;;;5070183;28;20040;-61
2022/04/01 07:07:28;;;;;;;3.50;1.10;;;;;;;;;;5070158;28;20098;-61
2022/04/01 07:09:54;;;;;;;2.55;0.90;;;;;;;;;;5068350;28;20066;-62
2022/04/01 07:12:21;;;;;;;2.28;1.52;;;;;;;;;;5069726;28;20457;-61
2022/04/01 07:14:47;;;;;;;2.38;1.15;;;;;;;;;;5070455;28;20376;-62
2022/04/01 07:17:13;;;;;;;4.72;1.00;;;;;;;;;;5069992;28;20068;-61
2022/04/01 07:19:39;;;;;;;1.85;1.42;;;;;;;;;;5070060;28;20065;-62
2022/04/01 07:22:08;;;;;;;1.40;1.00;;;;;;;;;;5070605;28;20056;-62
2022/04/01 07:24:34;;;;;;;4.13;1.20;;;;;;;;;;5073092;28;20063;-61
2022/04/01 07:27:00;;;;;;;2.60;0.90;;;;;;;;;;5073709;28;20170;-61
2022/04/01 07:29:27;;;;;;;2.25;1.00;;;;;;;;;;5064973;28;20123;-62
2022/04/01 07:34:41;;;;;;;1.40;0.88;;;;;;;;;;5070668;28;20574;-61
2022/04/01 07:37:08;;;;;;;1.27;0.90;;;;;;;;;;5070224;28;20080;-61
2022/04/01 07:39:34;;;;;;;5.13;1.10;;;;;;;;;;5070998;28;20064;-61
2022/04/01 07:42:00;;;;;;;3.38;1.20;;;;;;;;;;5072355;28;20044;-62
2022/04/01 07:44:26;;;;;;;3.33;1.50;;;;;;;;;;5071437;28;20032;-61
2022/04/01 07:46:53;;;;;;;3.22;1.30;;;;;;;;;;5072447;28;20036;-61
2022/04/01 07:49:19;;;;;;;2.42;1.10;;;;;;;;;;5069428;28;20045;-61
2022/04/01 07:51:45;;;;;;;1.65;1.00;;;;;;;;;;5063588;28;20044;-62
2022/04/01 07:54:12;;;;;;;3.72;1.00;;;;;;;;;;5070305;28;20049;-61
2022/04/01 07:56:40;;;;;;;3.08;1.30;;;;;;;;;;5069077;28;20485;-61
2022/04/01 07:59:07;;;;;;;1.98;0.88;;;;;;;;;;5071011;28;20041;-61
2022/04/01 08:01:34;;;;;;;3.08;1.00;;;;;;;;;;5070464;28;20040;-62
2022/04/01 08:04:00;;;;;;;5.85;1.23;;;;;;;;;;5071608;28;20119;-62
2022/04/01 08:06:26;;;;;;;1.20;0.95;;;;;;;;;;5067875;28;20045;-62
2022/04/01 08:08:55;;;;;;;3.33;1.10;;;;;;;;;;5070101;28;20043;-62
2022/04/01 08:11:22;;;;;;;3.75;1.10;;;;;;;;;;5068611;28;20165;-62
2022/04/01 08:13:48;;;;;;;2.90;1.17;;;;;;;;;;5069533;28;20044;-62
2022/04/01 08:16:14;;;;;;;2.88;1.20;;;;;;;;;;5070535;28;20036;-62
2022/04/01 08:18:40;;;;;;;1.38;1.00;;;;;;;;;;5071483;28;20102;-62
2022/04/01 08:21:06;;;;;;;2.28;1.13;;;;;;;;;;5071346;28;20469;-62
2022/04/01 08:23:35;;;;;;;3.10;1.30;;;;;;;;;;5070193;28;20123;-62
2022/04/01 08:26:02;;;;;;;2.60;1.38;;;;;;;;;;5071739;28;20112;-62
2022/04/01 08:28:28;;;;;;;3.58;1.30;;;;;;;;;;5070236;28;20040;-62
2022/04/01 08:30:54;;;;;;;3.58;1.48;;;;;;;;;;5068568;28;20040;-62
2022/04/01 08:33:20;;;;;;;6.78;1.85;;;;;;;;;;5071383;28;20474;-61
2022/04/01 08:35:47;;;;;;;3.75;1.90;;;;;;;;;;5066774;28;20396;-62
2022/04/01 08:38:13;;;;;;;4.22;2.47;;;;;;;;;;5068784;28;20068;-61
2022/04/01 08:40:39;;;;;;;4.43;2.15;;;;;;;;;;5067219;28;20463;-62
2022/04/01 08:43:05;;;;;;;4.25;2.00;;;;;;;;;;5071294;28;20086;-62
2022/04/01 08:45:36;;;;;;;3.35;2.42;;;;;;;;;;5069488;28;20036;-62
2022/04/01 08:48:04;;;;;;;4.15;2.30;;;;;;;;;;5068481;28;20437;-63
2022/04/01 08:50:30;;;;;;;5.45;2.30;;;;;;;;;;5070489;28;20151;-62
2022/04/01 08:52:56;;;;;;;3.67;2.53;;;;;;;;;;5069044;28;20048;-61
2022/04/01 08:55:22;;;;;;;5.47;2.65;;;;;;;;;;5070051;28;20068;-62
2022/04/01 08:57:48;;;;;;;6.18;2.63;;;;;;;;;;5070296;28;20048;-63
2022/04/01 09:00:14;;;;;;;4.22;2.50;;;;;;;;;;5069450;28;20120;-62
2022/04/01 09:02:41;;;;;;;3.38;2.47;;;;;;;;;;5070007;28;20131;-62
2022/04/01 09:05:08;;;;;;;4.50;2.53;;;;;;;;;;5070736;28;20032;-62
2022/04/01 09:07:34;;;;;;;5.78;2.67;;;;;;;;;;5070661;28;20127;-62
2022/04/01 09:10:01;;;;;;;5.40;2.60;;;;;;;;;;5070047;28;20131;-62
2022/04/01 09:12:29;;;;;;;5.30;3.00;;;;;;;;;;5070546;28;20032;-62
2022/04/01 09:14:55;;;;;;;4.35;2.92;;;;;;;;;;5069380;28;20513;-62
2022/04/01 09:17:22;;;;;;;4.65;3.28;;;;;;;;;;5070491;28;20123;-62
2022/04/01 09:19:48;;;;;;;4.32;3.10;;;;;;;;;;5070957;28;20164;-61
2022/04/01 09:22:16;;;;;;;4.72;3.10;;;;;;;;;;5070001;28;20036;-62
2022/04/01 09:24:55;;;;;;;7.80;3.08;;;;;;;;;;5071670;28;20032;-62
2022/04/01 09:27:36;;;;;;;4.82;3.28;;;;;;;;;;5071209;28;20168;-62
2022/04/01 09:30:03;;;;;;;7.18;3.10;;;;;;;;;;5071308;28;20048;-61
2022/04/01 09:32:52;;;;;;;8.32;3.40;;;;;;;;;;5071906;28;20090;-62
2022/04/01 09:35:20;;;;;;;6.13;3.33;;;;;;;;;;5011936;28;20045;-62
2022/04/01 09:37:47;;;;;;;6.13;3.40;;;;;;;;;;5012966;28;20091;-62
2022/04/01 09:40:15;;;;;;;6.63;3.63;;;;;;;;;;5021942;28;20045;-62
2022/04/01 09:42:52;;;;;;;5.18;3.38;;;;;;;;;;5024460;28;20485;-62
2022/04/01 09:45:21;;;;;;;7.22;3.92;;;;;;;;;;5028105;28;20092;-62
2022/04/01 09:47:58;;;;;;;5.90;3.72;;;;;;;;;;5011898;28;20041;-62
2022/04/01 09:50:27;;;;;;;5.07;3.47;;;;;;;;;;5028162;28;20047;-62
2022/04/01 09:52:52;;;;;;;4.45;3.72;;;;;;;;;;5028300;28;20041;-63
2022/04/01 09:55:19;;;;;;;5.47;3.50;;;;;;;;;;5024029;28;20029;-62
2022/04/01 09:57:45;;;;;;;7.18;3.70;;;;;;;;;;5027875;28;20029;-62
2022/04/01 10:00:11;;;;;;;7.72;3.85;;;;;;;;;;5027394;28;20420;-63
2022/04/01 10:02:38;;;;;;;7.78;3.95;;;;;;;;;;5027546;28;20038;-62
2022/04/01 10:05:05;;;;;;;4.75;3.60;;;;;;;;;;5025815;28;20072;-62
2022/04/01 10:07:33;;;;;;;9.82;3.85;;;;;;;;;;5027205;28;20566;-62
2022/04/01 10:09:59;;;;;;;6.05;4.28;;;;;;;;;;5026083;28;20053;-62
2022/04/01 10:12:27;;;;;;;5.57;3.50;;;;;;;;;;5050832;28;20044;-63
2022/04/01 10:14:57;;;;;;;5.85;3.67;;;;;;;;;;5069084;28;20090;-62
2022/04/01 10:17:23;;;;;;;4.82;3.90;;;;;;;;;;5069035;28;20097;-62
2022/04/01 10:19:49;;;;;;;4.90;3.75;;;;;;;;;;5066834;28;20036;-62
2022/04/01 10:22:16;;;;;;;8.30;4.63;;;;;;;;;;5068795;28;20093;-62
2022/04/01 10:24:52;;;;;;;6.32;3.97;;;;;;;;;;5068999;28;20047;-62
2022/04/01 10:27:41;;;;;;;7.25;3.53;;;;;;;;;;5068370;28;20028;-62
2022/04/01 10:30:11;;;;;;;5.97;3.80;;;;;;;;;;5066123;28;20036;-62
2022/04/01 10:32:42;;;;;;;8.68;4.22;;;;;;;;;;5069326;28;20112;-62
2022/04/01 10:35:21;;;;;;;6.53;4.13;;;5.60;99.90;;;;;;5069227;28;20040;-61
2022/04/01 10:37:47;;;;;;;5.95;3.85;;;;;;;;;;5068473;28;20068;-62
2022/04/01 10:40:18;;;;;;;6.25;3.95;;;;;;;;;;5068579;28;20491;-62
2022/04/01 10:42:45;;;;;;;4.47;3.55;;;;;;;;;;5069151;28;20036;-62
2022/04/01 10:45:14;;;;;;;5.05;3.67;;;;;;;;;;5069185;28;20487;-62
2022/04/01 10:53:33;;;;;;;5.68;3.83;;;;;;;;;;5064539;28;20044;-61
2022/04/01 10:56:25;;;;;;;6.50;4.07;;;;;;;;;;5064551;28;20123;-62
2022/04/01 10:59:22;;;;;;;4.65;3.83;;;4.50;99.90;;;;;;5068465;28;20072;-62
2022/04/01 11:01:56;;;;;;;8.27;4.40;;;;;;;;;;5067848;28;20090;-62
2022/04/01 11:04:22;;;;;;;5.85;3.75;;;;;;;;;;5069379;28;20044;-61
2022/04/01 11:07:06;;;;;;;4.43;3.33;;;;;;;;;;5066909;28;20044;-62
2022/04/01 11:09:50;;;;;;;4.30;3.53;;;;;;;;;;5068916;28;20123;-62
2022/04/01 11:12:19;;;;;;;5.35;3.13;;;;;;;;;;5068963;28;20392;-60
2022/04/01 11:17:30;;;;;;;3.30;2.42;;;;;;;;;;5067673;28;20048;-63
2022/04/01 11:20:04;;;;;;;2.83;2.33;;;;;;;;;;5068250;28;20434;-62
2022/04/01 11:22:45;;;;;;;3.67;2.22;;;;;;;;;;5067187;28;20044;-62
2022/04/01 11:25:31;;;;;;;2.83;2.20;;;;;;;;;;5067551;28;20112;-62
2022/04/01 11:27:57;;;;;;;3.25;1.83;;;;;;;;;;5066283;28;20044;-62
2022/04/01 11:30:25;;;;;;;2.28;1.83;;;;;;;;;;5066971;28;20112;-62
2022/04/01 11:33:09;;;;;;;5.65;1.88;;;;;;;;;;5066118;28;20455;-63
2022/04/01 11:35:39;;;;;;;1.95;1.60;;;;;;;;;;5068150;28;20044;-62
2022/04/01 11:38:06;;;;;;;2.55;1.90;;;;;;;;;;5068796;28;20507;-62
2022/04/01 11:40:33;;;;;;;5.30;2.15;;;;;;;;;;5067738;28;20036;-63
2022/04/01 11:43:07;;;;;;;3.03;1.70;;;;;;;;;;5066762;28;20094;-61
2022/04/01 11:45:48;;;;;;;3.47;1.70;;;;;;;;;;5067817;28;20037;-62
2022/04/01 11:48:14;;;;;;;3.20;1.55;;;;;;;;;;5068394;28;20039;-62
2022/04/01 11:50:45;;;;;;;3.45;1.92;;;;;;;;;;5069600;28;20033;-62
2022/04/01 11:53:21;;;;;;;5.85;1.55;;;;;;;;;;5066775;28;20514;-62
2022/04/01 11:55:47;;;;;;;1.70;1.40;;;;;;;;;;5065259;28;20502;-62
2022/04/01 11:58:13;;;;;;;3.55;1.73;;;;;;;;;;5065844;28;20394;-62
2022/04/01 12:00:39;;;;;;;3.13;1.63;;;;;;;;;;5067175;28;20036;-62
2022/04/01 12:03:07;;;;;;;2.67;1.67;;;;;;;;;;5068581;28;20116;-62
2022/04/01 12:05:34;;;;;;;5.65;1.67;;;;;;;;;;5066138;28;20433;-61
2022/04/01 12:10:52;;;;;;;2.45;1.90;;;;;;;;;;5070902;28;20503;-62
2022/04/01 12:13:18;;;;;;;2.47;1.60;;;;;;;;;;5072524;28;20135;-62
2022/04/01 12:15:48;;;;;;;2.22;1.23;;;;;;;;;;5067703;28;20040;-62
2022/04/01 12:18:16;;;;;;;3.95;1.70;;;;;;;;;;5070879;28;20483;-62
2022/04/01 12:20:43;;;;;;;2.28;1.05;;;;;;;;;;5068868;28;20070;-62
2022/04/01 12:23:09;;;;;;;3.03;1.52;;;;;;;;;;5052984;28;20036;-62
2022/04/01 12:25:36;;;;;;;3.08;2.00;;;;;;;;;;5069443;28;20119;-62
2022/04/01 12:28:13;;;;;;;5.07;1.70;;;5.70;99.90;;;;;;5071618;28;20102;-62
2022/04/01 12:30:46;;;;;;;2.20;1.25;;;;;;;;;;5066751;28;20037;-62
2022/04/01 12:33:21;;;;;;;5.80;1.85;;;;;;;;;;5070079;28;20483;-62
2022/04/01 12:35:55;;;;;;;2.53;1.48;;;;;;;;;;5071521;28;21413;-62
2022/04/01 12:38:21;;;;;;;2.10;1.48;;;;;;;;;;5071977;28;20044;-62
2022/04/01 12:40:47;;;;;;;3.15;1.63;;;;;;;;;;5071685;28;20079;-61
2022/04/01 12:43:29;;;;;;;3.67;1.55;;;;;;;;;;5069817;28;20036;-62
2022/04/01 12:46:04;;;;;;;3.20;1.50;;;;;;;;;;5068756;28;20115;-63
2022/04/01 12:48:31;;;;;;;3.40;1.63;;;;;;;;;;5069506;28;20424;-62
2022/04/01 12:51:03;;;;;;;3.30;1.20;;;;;;;;;;5070541;28;20121;-62
2022/04/01 12:53:30;;;;;;;2.25;1.33;;;;;;;;;;5071665;28;20114;-62
2022/04/01 12:56:16;;;;;;;3.95;1.52;;;;;;;;;;5071191;28;20080;-62
2022/04/01 12:58:48;;;;;;;1.73;1.50;;;;;;;;;;5069690;28;20044;-62
2022/04/01 13:01:14;;;;;;;4.55;1.50;;;;;;;;;;5071704;28;20040;-62
2022/04/01 13:03:48;;;;;;;3.03;1.40;;;;;;;;;;5071345;28;20079;-62
2022/04/01 13:06:15;;;;;;;2.45;1.30;;;;;;;;;;5066918;28;20854;-62
2022/04/01 13:08:42;;;;;;;4.05;1.85;;;;;;;;;;5066201;28;20055;-62
2022/04/01 13:11:15;;;;;;;2.22;1.13;;;;;;;;;;5066635;28;20380;-63
2022/04/01 13:13:41;;;;;;;7.18;1.42;;;;;;;;;;5072098;28;20052;-63
2022/04/01 13:16:09;;;;;;;3.03;1.30;;;;;;;;;;5071596;28;20546;-62
2022/04/01 13:18:35;;;;;;;3.92;1.40;;;;;;;;;;5069759;28;20398;-62
2022/04/01 13:21:01;;;;;;;3.17;1.50;;;;;;;;;;5069551;28;20036;-62
2022/04/01 13:23:30;;;;;;;5.28;1.45;;;;;;;;;;5066857;28;20060;-62
2022/04/01 13:25:56;;;;;;;3.00;1.40;;;;;;;;;;5070323;28;20052;-62
2022/04/01 13:28:22;;;;;;;3.45;1.50;;;;;;;;;;5070771;28;20398;-62
2022/04/01 13:30:49;;;;;;;2.75;1.60;;;;;;;;;;5065086;28;20060;-62
2022/04/01 13:33:15;;;;;;;1.90;1.48;;;;;;;;;;5070639;28;20047;-62
2022/04/01 13:35:41;;;;;;;2.63;1.42;;;;;;;;;;5068659;28;20041;-62
2022/04/01 13:38:07;;;;;;;1.63;1.25;;;;;;;;;;5068819;28;20059;-61
2022/04/01 13:40:33;;;;;;;3.83;1.40;;;;;;;;;;5067741;28;20044;-63
2022/04/01 13:43:00;;;;;;;3.42;1.30;;;;;;;;;;5066679;28;20071;-62
2022/04/01 13:45:26;;;;;;;2.10;1.33;;;;;;;;;;5068740;28;20033;-62
2022/04/01 13:47:52;;;;;;;4.50;1.95;;;;;;;;;;5072080;28;20059;-62
2022/04/01 13:50:18;;;;;;;2.80;1.42;;;;;;;;;;5069405;28;20394;-62
2022/04/01 13:52:44;;;;;;;2.28;1.42;;;;;;;;;;5070180;28;20040;-61
2022/04/01 13:55:10;;;;;;;2.13;1.50;;;;;;;;;;5070958;28;20048;-63
2022/04/01 13:57:36;;;;;;;2.20;1.20;;;;;;;;;;5069413;28;20045;-62
2022/04/01 14:00:03;;;;;;;2.95;1.20;;;;;;;;;;5073335;28;20051;-63
2022/04/01 14:02:29;;;;;;;2.53;1.35;;;;;;;;;;5067846;28;20072;-63
2022/04/01 14:04:55;;;;;;;2.00;1.40;;;;;;;;;;5071655;28;20510;-62
2022/04/01 14:07:21;;;;;;;2.50;1.45;;;;;;;;;;5073429;28;20605;-62
2022/04/01 14:09:47;;;;;;;3.60;1.48;;;;;;;;;;5071562;28;20123;-63
2022/04/01 14:12:13;;;;;;;2.80;1.60;;;;;;;;;;5072005;28;20041;-63
2022/04/01 14:14:39;;;;;;;3.33;1.70;;;;;;;;;;5069288;28;20050;-61
2022/04/01 14:17:06;;;;;;;2.08;1.20;;;;;;;;;;5067411;28;20132;-62
2022/04/01 14:19:33;;;;;;;1.88;1.30;;;;;;;;;;5068615;28;20044;-62
2022/04/01 14:21:59;;;;;;;4.30;1.38;;;;;;;;;;5069656;28;20055;-61
2022/04/01 14:24:25;;;;;;;3.40;1.20;;;;;;;;;;5064241;28;20406;-62
2022/04/01 14:26:52;;;;;;;3.08;1.40;;;6.20;99.90;;;;;;5070140;28;20040;-62
2022/04/01 14:32:03;;;;;;;6.88;1.40;;;;;;;;;;5067390;28;20234;-61
2022/04/01 14:34:29;;;;;;;4.32;1.30;;;;;;;;;;5067284;28;20040;-61
2022/04/01 14:36:55;;;;;;;1.73;1.48;;;;;;;;;;5070544;28;20082;-62
2022/04/01 14:39:22;;;;;;;3.17;1.25;;;;;;;;;;5068399;28;20064;-62
2022/04/01 14:41:48;;;;;;;4.38;1.80;;;;;;;;;;5067150;28;20067;-63
2022/04/01 14:44:14;;;;;;;5.70;1.70;;;;;;;;;;5070155;28;20060;-62
2022/04/01 14:46:41;;;;;;;3.67;1.42;;;;;;;;;;5069100;28;20475;-62
2022/04/01 14:49:07;;;;;;;2.25;1.20;;;;;;;;;;5067268;28;20048;-61
2022/04/01 14:51:33;;;;;;;2.90;1.77;;;;;;;;;;5069565;28;20076;-62
2022/04/01 14:53:59;;;;;;;2.90;1.38;;;;;;;;;;5072840;28;20028;-62
2022/04/01 14:56:25;;;;;;;3.63;1.33;;;;;;;;;;5069046;28;20547;-63
2022/04/01 14:58:51;;;;;;;2.28;1.30;;;;;;;;;;5065801;28;20083;-62
2022/04/01 15:01:17;;;;;;;2.97;1.38;;;;;;;;;;5070394;28;20436;-62
2022/04/01 15:03:43;;;;;;;2.80;1.48;;;;;;;;;;5069186;28;20038;-62
2022/04/01 15:06:09;;;;;;;5.82;1.40;;;;;;;;;;5069226;28;20112;-62
2022/04/01 15:08:35;;;;;;;4.47;1.20;;;;;;;;;;5066644;28;20043;-61
2022/04/01 15:11:01;;;;;;;2.55;1.30;;;;;;;;;;5069479;28;20093;-62
2022/04/01 15:13:29;;;;;;;3.25;1.55;;;;;;;;;;5064519;28;20041;-61